Mountain Home Air Force Base
KMUO : now visible

Airfield :











YOU CAN JOIN US ON...

 
LOGIN :

Register | Disclaimer

   EN    FR    IT 

 









Legend :    VFR   Marginal VFR   IFR   Intensive IFR   Very Intensive IFR
Visi :
Ceiling :
>= 8 km
>= 3000ft
5 to 8 km
1000 to 3000 ft
1500m to 5 km
500 to 1000 ft
800 to 1500m
200 to 500 ft
< 800m
< 200 ft
Symbols :   Thunderstorms  Fog  Heavy snow  Heavy precipitations  Wind > 20 kt







- Airport Elevation : 2996 ft


KMUO - Mountain Home Air Force Base

CURRENT METAR :
  • 162158Z AUTO 33015KT 10SM FEW170 SCT190 26/02 A2967 RMK AO2 SLP023 T02560016 $

EXPIRED METARs :
  • 162125Z AUTO 31018G24KT 10SM SCT190 27/M01 A2967 RMK AO2 WSHFT 23 SLP021 $
  • 162058Z AUTO 24008KT 10SM FEW170 SCT200 27/M03 A2968 RMK AO2 SLP025 T02681029 57023 $
  • 161958Z AUTO 01005KT 10SM FEW140 SCT180 SCT200 26/M04 A2970 RMK AO2 SLP033 T02621044 $

TAF TAF KMUO
Valid from the 16 at 18:00 until the 18 at 00:00 UTC


161800Z 1618/1800 29008KT 9999 BKN170 BKN240 QNH2975INS
BECMG 1620/1621 33015G20KT 9999 VCSH SCT120 BKN150 510209 QNH2969INS
TEMPO 1700/1704 31020G30KT 9000 -SHRA BKN070 520209
BECMG 1704/1705 32009KT 9999 NSW BKN050 QNH2984INS
BECMG 1719/1720 22012KT 9999 FEW050 SCT110 QNH2988INS TX27/1621Z TN11/1712Z
No reported NOTAMs for that airfield.



MET'MAP, your aeronautical weather chart ! - Copyright ORBIFLY December 2007 - Disclaimer

ORBIFLY MET'MAP TEAM :

Programming & Development : Alexandra Zaïnal
Concept & Development : Baudouin d'Aumeries
Co-Development & Prog : Marc-Olivier Méhu
Technical & hardware support : Manuel Goepfert

Contact : metmap@orbifly.com




SOURCES & CREDITS :

   NOAA       Earth
Advisory